sensor_id;sensor_type;location;lat;lon;timestamp;pressure;altitude;pressure_sealevel;temperature;humidity
59493;BME280;45497;43.996;22.876;2022-09-03T00:00:32;101165.97;;;20.21;60.21
59493;BME280;45497;43.996;22.876;2022-09-03T00:03:05;101169.50;;;20.21;60.27
59493;BME280;45497;43.996;22.876;2022-09-03T00:05:40;101169.69;;;20.20;60.07
59493;BME280;45497;43.996;22.876;2022-09-03T00:10:50;101168.88;;;20.19;59.98
59493;BME280;45497;43.996;22.876;2022-09-03T00:13:33;101172.03;;;20.16;59.61
59493;BME280;45497;43.996;22.876;2022-09-03T00:17:54;101182.34;;;20.19;59.40
59493;BME280;45497;43.996;22.876;2022-09-03T00:20:27;101175.09;;;20.20;59.43
59493;BME280;45497;43.996;22.876;2022-09-03T00:22:59;101183.38;;;20.18;59.37
59493;BME280;45497;43.996;22.876;2022-09-03T00:25:35;101171.81;;;20.18;59.43
59493;BME280;45497;43.996;22.876;2022-09-03T00:28:07;101178.47;;;20.15;59.53
59493;BME280;45497;43.996;22.876;2022-09-03T00:30:37;101173.91;;;20.16;59.30
59493;BME280;45497;43.996;22.876;2022-09-03T00:33:12;101180.56;;;20.13;59.42
59493;BME280;45497;43.996;22.876;2022-09-03T00:35:49;101180.56;;;20.13;59.52
59493;BME280;45497;43.996;22.876;2022-09-03T00:38:18;101192.75;;;20.16;59.41
59493;BME280;45497;43.996;22.876;2022-09-03T00:46:47;101189.22;;;20.15;59.46
59493;BME280;45497;43.996;22.876;2022-09-03T00:55:21;101189.66;;;20.12;59.39
59493;BME280;45497;43.996;22.876;2022-09-03T00:58:01;101182.63;;;20.11;59.23
59493;BME280;45497;43.996;22.876;2022-09-03T01:00:39;101179.94;;;20.11;59.29
59493;BME280;45497;43.996;22.876;2022-09-03T01:11:43;101194.22;;;20.12;59.42
59493;BME280;45497;43.996;22.876;2022-09-03T01:17:00;101184.56;;;20.04;59.27
59493;BME280;45497;43.996;22.876;2022-09-03T01:19:46;101195.09;;;20.05;59.41
59493;BME280;45497;43.996;22.876;2022-09-03T01:22:48;101189.50;;;20.07;59.47
59493;BME280;45497;43.996;22.876;2022-09-03T01:30:28;101196.75;;;20.07;59.66
59493;BME280;45497;43.996;22.876;2022-09-03T01:47:12;101203.25;;;19.99;58.97
59493;BME280;45497;43.996;22.876;2022-09-03T01:52:14;101186.47;;;19.97;59.09
59493;BME280;45497;43.996;22.876;2022-09-03T02:02:38;101200.63;;;19.92;58.91
59493;BME280;45497;43.996;22.876;2022-09-03T02:06:53;101199.94;;;19.97;58.77
59493;BME280;45497;43.996;22.876;2022-09-03T02:09:22;101196.66;;;19.95;58.62
59493;BME280;45497;43.996;22.876;2022-09-03T02:11:55;101199.81;;;19.92;58.58
59493;BME280;45497;43.996;22.876;2022-09-03T02:14:25;101207.88;;;19.92;58.58
59493;BME280;45497;43.996;22.876;2022-09-03T02:16:52;101199.81;;;19.92;58.63
59493;BME280;45497;43.996;22.876;2022-09-03T02:19:18;101207.63;;;19.93;58.65
59493;BME280;45497;43.996;22.876;2022-09-03T02:21:49;101206.22;;;19.91;58.54
59493;BME280;45497;43.996;22.876;2022-09-03T02:24:16;101206.22;;;19.91;58.72
59493;BME280;45497;43.996;22.876;2022-09-03T02:26:42;101207.88;;;19.92;58.59
59493;BME280;45497;43.996;22.876;2022-09-03T02:29:08;101203.72;;;19.89;58.63
59493;BME280;45497;43.996;22.876;2022-09-03T02:31:35;101203.31;;;19.92;58.72
59493;BME280;45497;43.996;22.876;2022-09-03T02:34:00;101203.72;;;19.89;58.69
59493;BME280;45497;43.996;22.876;2022-09-03T02:36:39;101200.63;;;19.92;58.72
59493;BME280;45497;43.996;22.876;2022-09-03T02:39:06;101194.84;;;19.89;58.83
59493;BME280;45497;43.996;22.876;2022-09-03T02:41:32;101195.50;;;19.84;58.97
59493;BME280;45497;43.996;22.876;2022-09-03T02:46:53;101212.03;;;19.88;58.68
59493;BME280;45497;43.996;22.876;2022-09-03T02:49:21;101218.69;;;19.85;58.67
59493;BME280;45497;43.996;22.876;2022-09-03T02:53:54;101217.78;;;19.91;58.83
59493;BME280;45497;43.996;22.876;2022-09-03T02:56:19;101218.00;;;19.90;58.53
59493;BME280;45497;43.996;22.876;2022-09-03T02:58:48;101205.44;;;19.83;58.65
59493;BME280;45497;43.996;22.876;2022-09-03T03:03:15;101210.41;;;19.86;58.58
59493;BME280;45497;43.996;22.876;2022-09-03T03:05:52;101219.50;;;19.85;58.64
59493;BME280;45497;43.996;22.876;2022-09-03T03:08:20;101214.31;;;19.84;58.67
59493;BME280;45497;43.996;22.876;2022-09-03T03:10:48;101221.97;;;19.87;58.65
59493;BME280;45497;43.996;22.876;2022-09-03T03:13:15;101212.03;;;19.88;58.54
59493;BME280;45497;43.996;22.876;2022-09-03T03:15:41;101210.19;;;19.88;58.57
59493;BME280;45497;43.996;22.876;2022-09-03T03:18:07;101201.25;;;19.88;58.65
59493;BME280;45497;43.996;22.876;2022-09-03T03:20:39;101200.84;;;19.91;58.98
59493;BME280;45497;43.996;22.876;2022-09-03T03:23:05;101197.53;;;19.89;59.14
59493;BME280;45497;43.996;22.876;2022-09-03T03:25:38;101208.69;;;19.92;59.14
59493;BME280;45497;43.996;22.876;2022-09-03T03:28:04;101205.41;;;19.90;59.00
59493;BME280;45497;43.996;22.876;2022-09-03T03:30:31;101208.69;;;19.92;58.87
59493;BME280;45497;43.996;22.876;2022-09-03T03:32:57;101215.25;;;19.96;59.05
59493;BME280;45497;43.996;22.876;2022-09-03T03:35:23;101216.53;;;19.94;59.02
59493;BME280;45497;43.996;22.876;2022-09-03T03:37:49;101211.97;;;19.94;59.19
59493;BME280;45497;43.996;22.876;2022-09-03T03:40:14;101212.63;;;19.90;59.09
59493;BME280;45497;43.996;22.876;2022-09-03T03:42:41;101212.19;;;19.93;59.11
59493;BME280;45497;43.996;22.876;2022-09-03T03:45:07;101219.44;;;19.92;59.16
59493;BME280;45497;43.996;22.876;2022-09-03T03:47:34;101207.69;;;19.86;59.21
59493;BME280;45497;43.996;22.876;2022-09-03T03:50:00;101213.47;;;19.90;59.36
59493;BME280;45497;43.996;22.876;2022-09-03T03:52:26;101216.75;;;19.92;59.42
59493;BME280;45497;43.996;22.876;2022-09-03T03:54:52;101213.00;;;19.93;59.37
59493;BME280;45497;43.996;22.876;2022-09-03T03:57:19;101207.88;;;19.92;59.53
59493;BME280;45497;43.996;22.876;2022-09-03T03:59:45;101208.00;;;19.97;59.44
59493;BME280;45497;43.996;22.876;2022-09-03T04:02:11;101209.28;;;19.94;59.68
59493;BME280;45497;43.996;22.876;2022-09-03T04:04:36;101208.69;;;19.92;59.70
59493;BME280;45497;43.996;22.876;2022-09-03T04:07:02;101213.25;;;19.92;59.83
59493;BME280;45497;43.996;22.876;2022-09-03T04:09:28;101213.25;;;19.92;59.80
59493;BME280;45497;43.996;22.876;2022-09-03T04:11:53;101213.38;;;19.97;59.85
59493;BME280;45497;43.996;22.876;2022-09-03T04:14:21;101212.34;;;19.98;59.85
59493;BME280;45497;43.996;22.876;2022-09-03T04:16:46;101219.16;;;20.00;59.98
59493;BME280;45497;43.996;22.876;2022-09-03T04:19:12;101223.34;;;19.96;59.87
59493;BME280;45497;43.996;22.876;2022-09-03T04:21:38;101222.53;;;19.96;59.84
59493;BME280;45497;43.996;22.876;2022-09-03T04:24:04;101233.66;;;19.99;59.51
59493;BME280;45497;43.996;22.876;2022-09-03T04:26:30;101230.16;;;19.99;59.81
59493;BME280;45497;43.996;22.876;2022-09-03T04:28:57;101228.88;;;20.01;59.86
59493;BME280;45497;43.996;22.876;2022-09-03T04:31:23;101235.94;;;20.02;59.74
59493;BME280;45497;43.996;22.876;2022-09-03T04:33:49;101234.22;;;20.08;59.85
59493;BME280;45497;43.996;22.876;2022-09-03T04:36:21;101239.81;;;20.07;59.65
59493;BME280;45497;43.996;22.876;2022-09-03T04:38:49;101243.13;;;20.09;59.72
59493;BME280;45497;43.996;22.876;2022-09-03T04:41:18;101254.25;;;20.12;59.94
59493;BME280;45497;43.996;22.876;2022-09-03T04:43:44;101250.59;;;20.07;59.89
59493;BME280;45497;43.996;22.876;2022-09-03T04:46:12;101251.63;;;20.05;59.87
59493;BME280;45497;43.996;22.876;2022-09-03T04:48:38;101254.69;;;20.09;59.93
59493;BME280;45497;43.996;22.876;2022-09-03T04:51:05;101261.31;;;20.13;59.77
59493;BME280;45497;43.996;22.876;2022-09-03T04:53:36;101252.16;;;20.14;59.69
59493;BME280;45497;43.996;22.876;2022-09-03T04:56:03;101257.56;;;20.14;59.79
59493;BME280;45497;43.996;22.876;2022-09-03T04:58:35;101261.31;;;20.13;59.74
59493;BME280;45497;43.996;22.876;2022-09-03T05:01:07;101254.44;;;20.17;59.87
59493;BME280;45497;43.996;22.876;2022-09-03T05:03:32;101264.75;;;20.20;59.77
59493;BME280;45497;43.996;22.876;2022-09-03T05:05:58;101267.22;;;20.22;59.61
59493;BME280;45497;43.996;22.876;2022-09-03T05:08:24;101263.50;;;20.23;59.70
59493;BME280;45497;43.996;22.876;2022-09-03T05:10:57;101266.00;;;20.18;59.91
59493;BME280;45497;43.996;22.876;2022-09-03T05:13:24;101275.53;;;20.20;60.00
59493;BME280;45497;43.996;22.876;2022-09-03T05:15:49;101266.41;;;20.21;59.73
59493;BME280;45497;43.996;22.876;2022-09-03T05:18:15;101257.94;;;20.18;59.45
59493;BME280;45497;43.996;22.876;2022-09-03T05:20:40;101260.03;;;20.16;59.91
59493;BME280;45497;43.996;22.876;2022-09-03T05:23:06;101254.44;;;20.17;59.91
59493;BME280;45497;43.996;22.876;2022-09-03T05:25:32;101262.06;;;20.20;59.91
59493;BME280;45497;43.996;22.876;2022-09-03T05:27:58;101269.91;;;20.22;60.13
59493;BME280;45497;43.996;22.876;2022-09-03T05:30:23;101263.69;;;20.21;59.97
59493;BME280;45497;43.996;22.876;2022-09-03T05:32:50;101276.50;;;20.26;60.10
59493;BME280;45497;43.996;22.876;2022-09-03T05:35:16;101272.97;;;20.25;60.27
59493;BME280;45497;43.996;22.876;2022-09-03T05:37:41;101276.91;;;20.30;60.18
59493;BME280;45497;43.996;22.876;2022-09-03T05:40:07;101284.28;;;20.34;60.13
59493;BME280;45497;43.996;22.876;2022-09-03T05:42:36;101277.94;;;20.29;60.14
59493;BME280;45497;43.996;22.876;2022-09-03T05:45:06;101288.69;;;20.29;60.69
59493;BME280;45497;43.996;22.876;2022-09-03T05:47:38;101283.53;;;20.27;60.97
59493;BME280;45497;43.996;22.876;2022-09-03T05:50:07;101273.44;;;20.22;61.37
59493;BME280;45497;43.996;22.876;2022-09-03T05:52:35;101282.94;;;20.25;61.15
59493;BME280;45497;43.996;22.876;2022-09-03T05:55:01;101290.34;;;20.30;61.21
59493;BME280;45497;43.996;22.876;2022-09-03T05:57:26;101284.81;;;20.24;61.19
59493;BME280;45497;43.996;22.876;2022-09-03T05:59:53;101289.31;;;20.31;61.37
59493;BME280;45497;43.996;22.876;2022-09-03T06:02:19;101285.16;;;20.35;61.34
59493;BME280;45497;43.996;22.876;2022-09-03T06:04:44;101290.59;;;20.47;61.25
59493;BME280;45497;43.996;22.876;2022-09-03T06:07:10;101296.81;;;20.47;61.15
59493;BME280;45497;43.996;22.876;2022-09-03T06:09:36;101304.75;;;20.42;61.44
59493;BME280;45497;43.996;22.876;2022-09-03T06:12:02;101304.13;;;20.40;61.64
59493;BME280;45497;43.996;22.876;2022-09-03T06:14:27;101309.06;;;20.43;61.71
59493;BME280;45497;43.996;22.876;2022-09-03T06:16:52;101317.53;;;20.47;61.47
59493;BME280;45497;43.996;22.876;2022-09-03T06:19:19;101318.13;;;20.49;61.53
59493;BME280;45497;43.996;22.876;2022-09-03T06:21:45;101314.41;;;20.50;61.48
59493;BME280;45497;43.996;22.876;2022-09-03T06:24:14;101311.13;;;20.48;61.74
59493;BME280;45497;43.996;22.876;2022-09-03T06:26:40;101324.75;;;20.53;61.88
59493;BME280;45497;43.996;22.876;2022-09-03T06:29:06;101336.72;;;20.57;61.95
59493;BME280;45497;43.996;22.876;2022-09-03T06:31:32;101325.13;;;20.56;61.97
59493;BME280;45497;43.996;22.876;2022-09-03T06:33:59;101324.66;;;20.59;62.02
59493;BME280;45497;43.996;22.876;2022-09-03T06:36:25;101319.91;;;20.61;62.11
59493;BME280;45497;43.996;22.876;2022-09-03T06:38:53;101323.44;;;20.62;61.88
59493;BME280;45497;43.996;22.876;2022-09-03T06:41:21;101321.50;;;20.69;61.84
59493;BME280;45497;43.996;22.876;2022-09-03T06:43:54;101323.16;;;20.70;62.02
59493;BME280;45497;43.996;22.876;2022-09-03T06:46:23;101321.28;;;20.71;61.96
59493;BME280;45497;43.996;22.876;2022-09-03T06:51:17;101326.00;;;20.75;62.11
59493;BME280;45497;43.996;22.876;2022-09-03T06:53:45;101333.72;;;20.72;61.91
59493;BME280;45497;43.996;22.876;2022-09-03T06:56:13;101339.03;;;20.78;61.86
59493;BME280;45497;43.996;22.876;2022-09-03T06:58:42;101340.81;;;20.85;61.67
59493;BME280;45497;43.996;22.876;2022-09-03T07:03:41;101337.53;;;21.01;61.10
59493;BME280;45497;43.996;22.876;2022-09-03T07:06:11;101338.22;;;21.15;60.73
59493;BME280;45497;43.996;22.876;2022-09-03T07:08:36;101346.03;;;21.23;60.64
59493;BME280;45497;43.996;22.876;2022-09-03T07:11:05;101339.72;;;21.29;60.22
59493;BME280;45497;43.996;22.876;2022-09-03T07:13:53;101345.56;;;21.26;60.33
59493;BME280;45497;43.996;22.876;2022-09-03T07:16:27;101345.84;;;21.36;60.22
59493;BME280;45497;43.996;22.876;2022-09-03T07:18:53;101350.88;;;21.33;60.11
59493;BME280;45497;43.996;22.876;2022-09-03T07:21:25;101355.22;;;21.34;60.16
59493;BME280;45497;43.996;22.876;2022-09-03T07:23:52;101353.03;;;21.43;59.98
59493;BME280;45497;43.996;22.876;2022-09-03T07:26:24;101362.19;;;21.42;59.72
59493;BME280;45497;43.996;22.876;2022-09-03T07:28:51;101348.31;;;21.38;59.79
59493;BME280;45497;43.996;22.876;2022-09-03T07:31:26;101347.00;;;21.47;59.59
59493;BME280;45497;43.996;22.876;2022-09-03T07:33:53;101343.06;;;21.62;59.46
59493;BME280;45497;43.996;22.876;2022-09-03T07:36:24;101339.13;;;21.76;58.98
59493;BME280;45497;43.996;22.876;2022-09-03T07:38:50;101351.63;;;21.89;58.29
59493;BME280;45497;43.996;22.876;2022-09-03T07:41:16;101347.91;;;22.02;57.75
59493;BME280;45497;43.996;22.876;2022-09-03T07:43:45;101346.50;;;22.11;57.77
59493;BME280;45497;43.996;22.876;2022-09-03T07:46:18;101349.63;;;22.26;57.34
59493;BME280;45497;43.996;22.876;2022-09-03T07:48:50;101348.00;;;22.37;57.12
59493;BME280;45497;43.996;22.876;2022-09-03T07:51:17;101352.03;;;22.58;56.87
59493;BME280;45497;43.996;22.876;2022-09-03T07:53:44;101349.44;;;22.75;56.08
59493;BME280;45497;43.996;22.876;2022-09-03T07:56:11;101362.22;;;23.03;55.13
59493;BME280;45497;43.996;22.876;2022-09-03T07:58:37;101364.00;;;23.09;54.75
59493;BME280;45497;43.996;22.876;2022-09-03T08:01:08;101365.28;;;22.95;54.62
59493;BME280;45497;43.996;22.876;2022-09-03T08:03:34;101354.34;;;22.90;54.21
59493;BME280;45497;43.996;22.876;2022-09-03T08:06:02;101349.16;;;23.00;54.08
59493;BME280;45497;43.996;22.876;2022-09-03T08:08:28;101353.19;;;23.09;54.31
59493;BME280;45497;43.996;22.876;2022-09-03T08:10:54;101356.16;;;23.37;53.44
59493;BME280;45497;43.996;22.876;2022-09-03T08:13:19;101357.50;;;23.63;52.51
59493;BME280;45497;43.996;22.876;2022-09-03T08:15:55;101355.47;;;23.70;52.38
59493;BME280;45497;43.996;22.876;2022-09-03T08:18:21;101353.31;;;23.84;52.25
59493;BME280;45497;43.996;22.876;2022-09-03T08:20:47;101348.25;;;24.04;51.55
59493;BME280;45497;43.996;22.876;2022-09-03T08:23:12;101355.56;;;24.21;51.12
59493;BME280;45497;43.996;22.876;2022-09-03T08:25:38;101353.84;;;24.49;50.68
59493;BME280;45497;43.996;22.876;2022-09-03T08:28:04;101349.56;;;24.87;49.49
59493;BME280;45497;43.996;22.876;2022-09-03T08:30:29;101350.78;;;24.96;48.18
59493;BME280;45497;43.996;22.876;2022-09-03T08:32:55;101341.22;;;24.93;48.12
59493;BME280;45497;43.996;22.876;2022-09-03T08:35:21;101344.22;;;25.14;48.00
59493;BME280;45497;43.996;22.876;2022-09-03T08:37:47;101346.09;;;25.58;47.52
59493;BME280;45497;43.996;22.876;2022-09-03T08:40:16;101341.09;;;25.71;46.52
59493;BME280;45497;43.996;22.876;2022-09-03T08:45:16;101341.75;;;25.56;47.00
59493;BME280;45497;43.996;22.876;2022-09-03T08:47:58;101338.03;;;25.41;47.40
59493;BME280;45497;43.996;22.876;2022-09-03T08:50:32;101337.88;;;25.25;47.45
59493;BME280;45497;43.996;22.876;2022-09-03T08:55:36;101348.00;;;24.91;47.87
59493;BME280;45497;43.996;22.876;2022-09-03T08:58:17;101326.84;;;24.93;47.42
59493;BME280;45497;43.996;22.876;2022-09-03T09:09:40;101344.63;;;25.45;47.66
59493;BME280;45497;43.996;22.876;2022-09-03T09:12:37;101338.56;;;25.37;47.28
59493;BME280;45497;43.996;22.876;2022-09-03T09:18:33;101327.09;;;25.58;46.35
59493;BME280;45497;43.996;22.876;2022-09-03T09:21:39;101334.44;;;25.57;46.48
59493;BME280;45497;43.996;22.876;2022-09-03T09:24:18;101342.72;;;25.45;46.76
59493;BME280;45497;43.996;22.876;2022-09-03T09:26:46;101333.75;;;25.45;46.10
59493;BME280;45497;43.996;22.876;2022-09-03T09:29:13;101337.41;;;25.33;46.32
59493;BME280;45497;43.996;22.876;2022-09-03T09:31:40;101338.66;;;25.48;46.45
59493;BME280;45497;43.996;22.876;2022-09-03T09:34:09;101336.84;;;25.53;45.54
59493;BME280;45497;43.996;22.876;2022-09-03T09:37:02;101341.91;;;25.72;45.65
59493;BME280;45497;43.996;22.876;2022-09-03T09:39:28;101337.72;;;25.86;45.55
59493;BME280;45497;43.996;22.876;2022-09-03T09:42:04;101331.19;;;25.87;44.89
59493;BME280;45497;43.996;22.876;2022-09-03T09:44:34;101333.56;;;25.79;44.49
59493;BME280;45497;43.996;22.876;2022-09-03T09:47:06;101342.16;;;25.70;44.89
59493;BME280;45497;43.996;22.876;2022-09-03T09:49:36;101347.72;;;25.59;45.19
59493;BME280;45497;43.996;22.876;2022-09-03T09:52:14;101351.38;;;25.69;45.06
59493;BME280;45497;43.996;22.876;2022-09-03T09:54:43;101355.63;;;25.87;45.28
59493;BME280;45497;43.996;22.876;2022-09-03T09:57:21;101346.88;;;25.80;45.26
59493;BME280;45497;43.996;22.876;2022-09-03T09:59:47;101345.00;;;25.81;45.36
59493;BME280;45497;43.996;22.876;2022-09-03T10:04:40;101347.91;;;25.74;45.22
59493;BME280;45497;43.996;22.876;2022-09-03T10:07:20;101344.44;;;25.79;45.35
59493;BME280;45497;43.996;22.876;2022-09-03T10:10:00;101344.88;;;25.70;45.11
59493;BME280;45497;43.996;22.876;2022-09-03T10:12:40;101336.56;;;25.55;45.07
59493;BME280;45497;43.996;22.876;2022-09-03T10:23:24;101344.34;;;25.96;44.84
59493;BME280;45497;43.996;22.876;2022-09-03T10:28:33;101342.22;;;25.75;45.05
59493;BME280;45497;43.996;22.876;2022-09-03T10:45:34;101340.97;;;25.88;44.57
59493;BME280;45497;43.996;22.876;2022-09-03T10:48:09;101326.06;;;25.91;44.72
59493;BME280;45497;43.996;22.876;2022-09-03T10:50:51;101323.72;;;26.00;44.58
59493;BME280;45497;43.996;22.876;2022-09-03T10:55:52;101309.31;;;26.31;43.70
59493;BME280;45497;43.996;22.876;2022-09-03T11:00:52;101310.97;;;26.38;43.41
59493;BME280;45497;43.996;22.876;2022-09-03T11:05:55;101315.09;;;26.08;43.73
59493;BME280;45497;43.996;22.876;2022-09-03T11:10:59;101301.22;;;26.04;44.17
59493;BME280;45497;43.996;22.876;2022-09-03T11:13:32;101313.94;;;26.31;44.05
59493;BME280;45497;43.996;22.876;2022-09-03T11:16:08;101310.56;;;26.56;43.45
59493;BME280;45497;43.996;22.876;2022-09-03T11:21:04;101303.44;;;26.93;41.98
59493;BME280;45497;43.996;22.876;2022-09-03T11:23:40;101303.69;;;26.91;41.65
59493;BME280;45497;43.996;22.876;2022-09-03T11:26:09;101301.16;;;26.79;42.05
59493;BME280;45497;43.996;22.876;2022-09-03T11:34:13;101311.69;;;26.23;43.11
59493;BME280;45497;43.996;22.876;2022-09-03T11:36:38;101311.09;;;26.16;43.83
59493;BME280;45497;43.996;22.876;2022-09-03T11:42:27;101311.19;;;25.66;44.57
59493;BME280;45497;43.996;22.876;2022-09-03T11:44:59;101301.13;;;25.67;44.80
59493;BME280;45497;43.996;22.876;2022-09-03T11:47:39;101308.91;;;25.85;44.64
59493;BME280;45497;43.996;22.876;2022-09-03T11:50:16;101312.09;;;25.77;44.43
59493;BME280;45497;43.996;22.876;2022-09-03T11:52:44;101303.22;;;25.87;44.40
59493;BME280;45497;43.996;22.876;2022-09-03T11:55:11;101309.31;;;25.99;44.05
59493;BME280;45497;43.996;22.876;2022-09-03T11:57:41;101312.03;;;25.99;43.62
59493;BME280;45497;43.996;22.876;2022-09-03T12:01:13;101313.91;;;25.93;44.22
59493;BME280;45497;43.996;22.876;2022-09-03T12:03:43;101310.00;;;25.84;44.17
59493;BME280;45497;43.996;22.876;2022-09-03T12:14:33;101282.56;;;25.86;43.85
59493;BME280;45497;43.996;22.876;2022-09-03T12:19:54;101294.16;;;25.49;44.64
59493;BME280;45497;43.996;22.876;2022-09-03T12:22:26;101300.72;;;25.53;44.94
59493;BME280;45497;43.996;22.876;2022-09-03T12:25:06;101288.84;;;25.59;44.52
59493;BME280;45497;43.996;22.876;2022-09-03T12:27:32;101292.72;;;25.68;44.50
59493;BME280;45497;43.996;22.876;2022-09-03T12:30:03;101286.31;;;25.80;44.13
59493;BME280;45497;43.996;22.876;2022-09-03T12:32:34;101289.94;;;25.90;44.08
59493;BME280;45497;43.996;22.876;2022-09-03T12:35:19;101281.41;;;26.04;43.89
59493;BME280;45497;43.996;22.876;2022-09-03T12:37:45;101274.59;;;26.06;43.87
59493;BME280;45497;43.996;22.876;2022-09-03T12:42:43;101283.34;;;25.81;44.13
59493;BME280;45497;43.996;22.876;2022-09-03T12:45:09;101271.63;;;25.75;44.40
59493;BME280;45497;43.996;22.876;2022-09-03T12:47:38;101284.59;;;25.68;44.19
59493;BME280;45497;43.996;22.876;2022-09-03T12:50:08;101279.97;;;25.69;44.65
59493;BME280;45497;43.996;22.876;2022-09-03T12:53:03;101271.75;;;25.64;44.22
59493;BME280;45497;43.996;22.876;2022-09-03T12:58:15;101260.31;;;25.89;43.67
59493;BME280;45497;43.996;22.876;2022-09-03T13:00:51;101257.97;;;25.98;42.96
59493;BME280;45497;43.996;22.876;2022-09-03T13:06:06;101262.44;;;26.14;42.88
59493;BME280;45497;43.996;22.876;2022-09-03T13:08:54;101261.25;;;26.42;42.68
59493;BME280;45497;43.996;22.876;2022-09-03T13:11:22;101265.63;;;26.48;42.18
59493;BME280;45497;43.996;22.876;2022-09-03T13:14:07;101261.84;;;26.49;42.19
59493;BME280;45497;43.996;22.876;2022-09-03T13:19:10;101252.88;;;26.49;42.24
59493;BME280;45497;43.996;22.876;2022-09-03T13:34:50;101250.31;;;26.32;41.56
59493;BME280;45497;43.996;22.876;2022-09-03T13:37:42;101242.50;;;26.41;41.25
59493;BME280;45497;43.996;22.876;2022-09-03T13:41:09;101251.47;;;26.41;41.05
59493;BME280;45497;43.996;22.876;2022-09-03T13:45:56;101247.63;;;26.37;41.38
59493;BME280;45497;43.996;22.876;2022-09-03T13:48:31;101242.97;;;26.27;41.59
59493;BME280;45497;43.996;22.876;2022-09-03T13:53:58;101240.19;;;26.17;42.16
59493;BME280;45497;43.996;22.876;2022-09-03T13:56:56;101244.84;;;26.22;42.20
59493;BME280;45497;43.996;22.876;2022-09-03T13:59:39;101246.41;;;26.18;41.97
59493;BME280;45497;43.996;22.876;2022-09-03T14:08:14;101250.91;;;26.39;41.39
59493;BME280;45497;43.996;22.876;2022-09-03T14:10:57;101250.91;;;26.39;41.10
59493;BME280;45497;43.996;22.876;2022-09-03T14:13:38;101247.13;;;26.40;41.18
59493;BME280;45497;43.996;22.876;2022-09-03T14:16:34;101244.16;;;26.47;41.36
59493;BME280;45497;43.996;22.876;2022-09-03T14:19:22;101247.44;;;26.49;41.35
59493;BME280;45497;43.996;22.876;2022-09-03T14:22:12;101254.47;;;26.45;41.46
59493;BME280;45497;43.996;22.876;2022-09-03T14:27:08;101247.94;;;26.41;41.35
59493;BME280;45497;43.996;22.876;2022-09-03T14:29:35;101244.63;;;26.33;41.39
59493;BME280;45497;43.996;22.876;2022-09-03T14:45:15;101244.31;;;26.30;41.77
59493;BME280;45497;43.996;22.876;2022-09-03T14:59:18;101245.94;;;26.26;41.76
59493;BME280;45497;43.996;22.876;2022-09-03T15:01:54;101240.81;;;26.29;41.62
59493;BME280;45497;43.996;22.876;2022-09-03T15:07:21;101242.94;;;26.22;41.39
59493;BME280;45497;43.996;22.876;2022-09-03T15:10:09;101247.47;;;26.11;41.65
59493;BME280;45497;43.996;22.876;2022-09-03T15:12:43;101235.50;;;26.07;41.52
59493;BME280;45497;43.996;22.876;2022-09-03T15:15:19;101244.25;;;26.15;41.50
59493;BME280;45497;43.996;22.876;2022-09-03T15:23:08;101251.25;;;26.10;41.74
59493;BME280;45497;43.996;22.876;2022-09-03T15:30:54;101258.38;;;26.17;42.05
59493;BME280;45497;43.996;22.876;2022-09-03T15:36:20;101258.66;;;26.15;41.59
59493;BME280;45497;43.996;22.876;2022-09-03T15:38:58;101265.16;;;26.14;41.84
59493;BME280;45497;43.996;22.876;2022-09-03T15:41:45;101264.59;;;26.12;41.66
59493;BME280;45497;43.996;22.876;2022-09-03T15:44:16;101257.78;;;26.09;42.01
59493;BME280;45497;43.996;22.876;2022-09-03T15:54:47;101262.34;;;25.99;42.07
59493;BME280;45497;43.996;22.876;2022-09-03T16:00:15;101250.63;;;25.93;42.26
59493;BME280;45497;43.996;22.876;2022-09-03T16:07:57;101258.94;;;25.86;41.47
59493;BME280;45497;43.996;22.876;2022-09-03T16:10:55;101259.75;;;25.87;41.34
59493;BME280;45497;43.996;22.876;2022-09-03T16:16:37;101275.50;;;25.85;42.18
59493;BME280;45497;43.996;22.876;2022-09-03T16:19:29;101271.41;;;25.82;42.56
59493;BME280;45497;43.996;22.876;2022-09-03T16:22:20;101262.13;;;25.78;42.77
59493;BME280;45497;43.996;22.876;2022-09-03T16:24:57;101262.25;;;25.61;43.03
59493;BME280;45497;43.996;22.876;2022-09-03T16:30:07;101266.50;;;25.52;43.59
59493;BME280;45497;43.996;22.876;2022-09-03T16:35:53;101268.94;;;25.26;45.48
59493;BME280;45497;43.996;22.876;2022-09-03T16:46:28;101271.28;;;24.95;47.28
59493;BME280;45497;43.996;22.876;2022-09-03T16:55:07;101282.19;;;24.78;47.72
59493;BME280;45497;43.996;22.876;2022-09-03T17:00:21;101284.19;;;24.66;48.04
59493;BME280;45497;43.996;22.876;2022-09-03T17:03:06;101289.47;;;24.56;48.37
59493;BME280;45497;43.996;22.876;2022-09-03T17:08:40;101301.44;;;24.43;49.30
59493;BME280;45497;43.996;22.876;2022-09-03T17:14:16;101315.28;;;24.24;50.00
59493;BME280;45497;43.996;22.876;2022-09-03T17:22:47;101335.63;;;23.93;51.15
59493;BME280;45497;43.996;22.876;2022-09-03T17:25:28;101328.84;;;23.79;51.33
59493;BME280;45497;43.996;22.876;2022-09-03T17:36:27;101355.75;;;23.57;52.96
59493;BME280;45497;43.996;22.876;2022-09-03T17:49:31;101369.28;;;23.16;54.26
59493;BME280;45497;43.996;22.876;2022-09-03T17:52:05;101377.50;;;23.09;54.78
59493;BME280;45497;43.996;22.876;2022-09-03T17:54:46;101376.44;;;22.99;54.81
59493;BME280;45497;43.996;22.876;2022-09-03T18:00:07;101375.63;;;22.86;55.18
59493;BME280;45497;43.996;22.876;2022-09-03T18:04:41;101380.78;;;22.88;55.43
59493;BME280;45497;43.996;22.876;2022-09-03T18:07:21;101386.09;;;22.83;55.26